createdAt,value
2023-09-30T00:03:35.917Z,3.45
2023-09-30T00:07:38.751Z,4.57
2023-09-30T00:11:40.556Z,4.65
2023-09-30T00:15:42.549Z,4.30
2023-09-30T00:19:45.967Z,5.00
2023-09-30T00:23:47.795Z,4.78
2023-09-30T00:27:50.305Z,5.18
2023-09-30T00:31:53.212Z,6.03
2023-09-30T00:35:55.372Z,5.75
2023-09-30T00:39:57.557Z,6.18
2023-09-30T00:44:00.089Z,5.88
2023-09-30T00:48:02.650Z,6.40
2023-09-30T00:52:04.808Z,7.18
2023-09-30T00:56:07.410Z,6.15
2023-09-30T01:00:13.698Z,6.60
2023-09-30T01:04:16.353Z,5.53
2023-09-30T01:08:19.890Z,6.10
2023-09-30T01:12:22.063Z,5.90
2023-09-30T01:16:24.753Z,5.57
2023-09-30T01:20:27.980Z,5.78
2023-09-30T01:24:31.119Z,5.13
2023-09-30T01:28:34.863Z,5.57
2023-09-30T01:32:38.251Z,5.57
2023-09-30T01:36:40.266Z,5.22
2023-09-30T01:40:43.384Z,5.55
2023-09-30T01:44:45.572Z,5.07
2023-09-30T01:48:47.743Z,5.13
2023-09-30T01:52:50.582Z,5.50
2023-09-30T01:56:53.400Z,5.30
2023-09-30T02:01:04.085Z,4.05
2023-09-30T02:05:09.320Z,3.63
2023-09-30T02:09:11.773Z,3.70
2023-09-30T02:13:14.057Z,3.63
2023-09-30T02:17:16.360Z,3.35
2023-09-30T02:21:19.341Z,4.22
2023-09-30T02:25:21.779Z,4.40
2023-09-30T02:29:24.485Z,3.80
2023-09-30T02:33:27.253Z,4.15
2023-09-30T02:37:29.494Z,3.75
2023-09-30T02:41:32.650Z,4.20
2023-09-30T02:45:35.517Z,3.47
2023-09-30T02:49:38.417Z,3.50
2023-09-30T02:53:40.897Z,3.67
2023-09-30T02:57:44.841Z,3.83
2023-09-30T03:01:48.296Z,4.28
2023-09-30T03:05:51.256Z,3.45
2023-09-30T03:09:55.538Z,4.10
2023-09-30T03:13:59.160Z,3.70
2023-09-30T03:18:02.051Z,3.88
2023-09-30T03:22:06.682Z,4.32
2023-09-30T03:26:11.733Z,3.60
2023-09-30T03:30:18.900Z,3.28
2023-09-30T03:34:23.454Z,3.03
2023-09-30T03:38:27.646Z,2.58
2023-09-30T03:42:31.181Z,2.40
2023-09-30T03:46:33.644Z,2.60
2023-09-30T03:50:36.310Z,1.90
2023-09-30T03:54:38.542Z,2.78
2023-09-30T03:58:46.094Z,2.47
2023-09-30T04:02:52.296Z,3.10
2023-09-30T04:06:55.241Z,3.05
2023-09-30T04:10:57.930Z,4.93
2023-09-30T04:15:01.195Z,4.80
2023-09-30T04:19:03.828Z,3.80
2023-09-30T04:23:06.228Z,3.10
2023-09-30T04:27:09.016Z,3.38
2023-09-30T04:31:14.288Z,3.53
2023-09-30T04:35:18.860Z,3.03
2023-09-30T04:39:21.642Z,3.33
2023-09-30T04:43:24.233Z,2.88
2023-09-30T04:47:26.503Z,3.10
2023-09-30T04:51:28.994Z,3.25
2023-09-30T04:55:31.666Z,2.90
2023-09-30T04:59:34.644Z,3.28
2023-09-30T05:03:38.562Z,3.13
2023-09-30T05:07:40.835Z,3.00
2023-09-30T05:11:43.006Z,2.58
2023-09-30T05:15:45.457Z,3.03
2023-09-30T05:19:47.480Z,2.90
2023-09-30T05:23:51.203Z,2.75
2023-09-30T05:27:55.925Z,2.78
2023-09-30T05:31:58.923Z,3.00
2023-09-30T05:36:03.896Z,3.25
2023-09-30T05:40:17.821Z,2.83
2023-09-30T05:44:19.782Z,2.70
2023-09-30T05:48:24.042Z,2.50
2023-09-30T05:52:27.810Z,2.55
2023-09-30T05:56:30.021Z,2.50
2023-09-30T06:00:36.641Z,2.72
2023-09-30T06:04:40.005Z,2.63
2023-09-30T06:08:42.039Z,2.63
2023-09-30T06:12:44.616Z,2.42
2023-09-30T06:16:48.949Z,2.33
2023-09-30T06:20:51.984Z,2.33
2023-09-30T06:24:54.468Z,2.58
2023-09-30T06:28:58.198Z,2.50
2023-09-30T06:33:02.476Z,2.78
2023-09-30T06:37:04.714Z,2.78
2023-09-30T06:41:07.673Z,2.50
2023-09-30T06:45:11.316Z,2.05
2023-09-30T06:49:13.433Z,2.75
2023-09-30T06:53:17.292Z,3.38
2023-09-30T06:57:19.164Z,3.17
2023-09-30T07:01:21.882Z,2.90
2023-09-30T07:05:24.768Z,2.63
2023-09-30T07:09:27.966Z,2.63
2023-09-30T07:13:30.585Z,2.63
2023-09-30T07:17:35.119Z,2.53
2023-09-30T07:21:38.880Z,2.65
2023-09-30T07:25:40.976Z,3.55
2023-09-30T07:29:42.873Z,3.65
2023-09-30T07:33:45.252Z,3.45
2023-09-30T07:37:48.312Z,3.72
2023-09-30T07:41:51.129Z,3.65
2023-09-30T07:45:53.411Z,3.90
2023-09-30T07:49:56.417Z,3.50
2023-09-30T07:54:06.720Z,3.97
2023-09-30T07:58:17.859Z,3.90
2023-09-30T08:02:24.038Z,3.22
2023-09-30T08:06:26.916Z,3.40
2023-09-30T08:10:31.201Z,4.00
2023-09-30T08:14:33.840Z,3.53
2023-09-30T08:18:35.888Z,4.57
2023-09-30T08:22:38.183Z,3.83
2023-09-30T08:26:40.452Z,5.03
2023-09-30T08:30:42.940Z,3.90
2023-09-30T08:34:44.728Z,3.80
2023-09-30T08:38:47.635Z,3.85
2023-09-30T08:42:53.561Z,4.15
2023-09-30T08:46:57.743Z,3.75
2023-09-30T08:51:01.821Z,3.15
2023-09-30T08:55:04.942Z,3.50
2023-09-30T08:59:07.051Z,3.20
2023-09-30T09:03:10.051Z,5.43
2023-09-30T09:07:12.372Z,4.43
2023-09-30T09:11:16.506Z,3.70
2023-09-30T09:15:25.016Z,3.60
2023-09-30T09:19:28.041Z,3.45
2023-09-30T09:23:40.453Z,2.83
2023-09-30T09:27:42.406Z,2.42
2023-09-30T09:31:45.109Z,2.83
2023-09-30T09:35:49.401Z,2.80
2023-09-30T09:39:58.498Z,2.78
2023-09-30T09:44:01.452Z,2.90
2023-09-30T09:48:06.031Z,2.30
2023-09-30T09:52:09.621Z,2.33
2023-09-30T09:56:13.263Z,2.05
2023-09-30T10:00:27.491Z,2.53
2023-09-30T10:04:31.496Z,2.90
2023-09-30T10:08:39.092Z,2.58
2023-09-30T10:12:42.678Z,2.60
2023-09-30T10:16:45.750Z,2.92
2023-09-30T10:20:50.241Z,2.30
2023-09-30T10:24:55.375Z,2.80
2023-09-30T10:29:10.411Z,2.80
2023-09-30T10:33:14.813Z,2.83
2023-09-30T10:41:52.258Z,3.25
2023-09-30T10:45:54.937Z,2.80
2023-09-30T10:49:57.048Z,3.17
2023-09-30T10:54:01.782Z,2.72
2023-09-30T10:58:04.977Z,2.50
2023-09-30T11:02:20.963Z,2.00
2023-09-30T11:06:23.915Z,2.45
2023-09-30T11:10:28.874Z,2.28
2023-09-30T11:14:32.656Z,2.50
2023-09-30T11:18:35.060Z,2.30
2023-09-30T11:22:37.424Z,2.10
2023-09-30T11:26:42.273Z,2.20
2023-09-30T11:30:55.107Z,2.38
2023-09-30T11:34:58.301Z,2.10
2023-09-30T11:39:05.948Z,1.65
2023-09-30T11:43:12.320Z,1.50
2023-09-30T11:47:16.292Z,1.67
2023-09-30T11:51:18.940Z,1.73
2023-09-30T11:55:22.844Z,1.90
2023-09-30T11:59:25.941Z,1.60
2023-09-30T12:03:31.189Z,1.63
2023-09-30T12:07:34.240Z,1.83
2023-09-30T12:11:36.431Z,1.45
2023-09-30T12:15:40.167Z,1.58
2023-09-30T12:19:43.360Z,1.80
2023-09-30T12:23:47.042Z,1.70
2023-09-30T12:27:50.078Z,1.98
2023-09-30T12:31:55.146Z,1.35
2023-09-30T12:35:59.025Z,1.30
2023-09-30T12:40:01.118Z,1.20
2023-09-30T12:44:03.743Z,1.10
2023-09-30T12:48:06.497Z,0.90
2023-09-30T12:52:08.847Z,0.80
2023-09-30T12:56:10.716Z,0.82
2023-09-30T13:00:13.257Z,0.80
2023-09-30T13:04:15.051Z,1.00
2023-09-30T13:08:17.249Z,0.80
2023-09-30T13:12:19.461Z,1.13
2023-09-30T13:16:23.487Z,0.70
2023-09-30T13:20:26.521Z,0.80
2023-09-30T13:24:28.365Z,0.73
2023-09-30T13:28:30.388Z,1.10
2023-09-30T13:32:34.142Z,0.70
2023-09-30T13:36:36.196Z,0.73
2023-09-30T13:40:41.032Z,0.70
2023-09-30T13:44:43.764Z,0.90
2023-09-30T13:48:46.423Z,0.50
2023-09-30T13:52:48.323Z,0.80
2023-09-30T13:56:50.612Z,0.60
2023-09-30T14:00:55.334Z,0.50
2023-09-30T14:04:57.262Z,0.60
2023-09-30T14:09:00.200Z,0.80
2023-09-30T14:13:03.126Z,0.80
2023-09-30T14:17:08.921Z,0.80
2023-09-30T14:21:10.766Z,1.00
2023-09-30T14:25:12.975Z,0.68
2023-09-30T14:29:14.825Z,0.70
2023-09-30T14:33:17.137Z,0.90
2023-09-30T14:37:19.076Z,0.80
2023-09-30T14:41:21.296Z,0.70
2023-09-30T14:45:23.796Z,1.10
2023-09-30T14:49:25.809Z,1.30
2023-09-30T14:53:27.720Z,1.40
2023-09-30T14:57:29.539Z,1.30
2023-09-30T15:01:31.419Z,1.20
2023-09-30T15:05:34.607Z,0.80
2023-09-30T15:09:37.836Z,1.10
2023-09-30T15:13:39.965Z,1.02
2023-09-30T15:17:41.764Z,1.02
2023-09-30T15:21:43.843Z,1.10
2023-09-30T15:25:46.184Z,1.00
2023-09-30T15:29:49.328Z,1.02
2023-09-30T15:33:51.589Z,0.80
2023-09-30T15:37:53.391Z,0.90
2023-09-30T15:41:55.741Z,0.80
2023-09-30T15:45:58.227Z,0.70
2023-09-30T15:50:00.163Z,0.60
2023-09-30T15:54:02.248Z,0.70
2023-09-30T15:58:08.308Z,0.70
2023-09-30T16:02:10.506Z,0.70
2023-09-30T16:06:12.361Z,0.75
2023-09-30T16:10:14.648Z,0.70
2023-09-30T16:14:17.747Z,0.80
2023-09-30T16:18:19.707Z,0.60
2023-09-30T16:22:21.929Z,0.60
2023-09-30T16:26:24.115Z,0.60
2023-09-30T16:30:26.047Z,0.75
2023-09-30T16:34:28.965Z,0.70
2023-09-30T16:38:30.778Z,0.40
2023-09-30T16:42:34.333Z,0.60
2023-09-30T16:46:37.668Z,0.80
2023-09-30T16:50:44.067Z,0.90
2023-09-30T16:54:45.944Z,1.40
2023-09-30T16:58:47.907Z,1.20
2023-09-30T17:02:50.151Z,0.80
2023-09-30T17:06:52.183Z,0.80
2023-09-30T17:10:56.430Z,0.68
2023-09-30T17:14:59.992Z,0.60
2023-09-30T17:19:02.462Z,0.60
2023-09-30T17:23:04.510Z,0.60
2023-09-30T17:27:06.746Z,0.60
2023-09-30T17:31:08.694Z,0.80
2023-09-30T17:35:10.600Z,0.70
2023-09-30T17:39:12.772Z,0.73
2023-09-30T17:43:15.710Z,0.95
2023-09-30T17:47:19.271Z,1.00
2023-09-30T17:51:21.666Z,1.02
2023-09-30T17:55:23.903Z,1.20
2023-09-30T17:59:25.643Z,1.58
2023-09-30T18:03:28.279Z,1.33
2023-09-30T18:07:30.373Z,1.17
2023-09-30T18:11:33.108Z,0.90
2023-09-30T18:15:35.371Z,0.80
2023-09-30T18:19:38.017Z,0.93
2023-09-30T18:23:40.907Z,1.13
2023-09-30T18:27:43.071Z,0.98
2023-09-30T18:31:45.587Z,1.55
2023-09-30T18:35:47.797Z,1.42
2023-09-30T18:39:51.611Z,1.85
2023-09-30T18:43:54.047Z,1.33
2023-09-30T18:47:56.734Z,1.70
2023-09-30T18:51:58.673Z,1.50
2023-09-30T18:56:00.846Z,1.67
2023-09-30T19:00:03.940Z,1.40
2023-09-30T19:04:07.340Z,1.27
2023-09-30T19:08:10.936Z,1.10
2023-09-30T19:12:12.994Z,1.20
2023-09-30T19:16:16.534Z,1.15
2023-09-30T19:20:20.525Z,9.43
2023-09-30T19:24:22.754Z,5.07
2023-09-30T19:28:24.971Z,3.83
2023-09-30T19:32:28.062Z,2.72
2023-09-30T19:36:30.121Z,2.25
2023-09-30T19:40:32.217Z,2.17
2023-09-30T19:44:35.369Z,2.40
2023-09-30T19:48:37.156Z,1.85
2023-09-30T19:52:39.170Z,1.70
2023-09-30T19:56:41.625Z,1.95
2023-09-30T20:00:43.888Z,2.00
2023-09-30T20:04:45.779Z,1.58
2023-09-30T20:08:51.899Z,1.45
2023-09-30T20:12:53.764Z,1.55
2023-09-30T20:16:55.859Z,1.42
2023-09-30T20:20:58.447Z,1.40
2023-09-30T20:25:03.087Z,1.48
2023-09-30T20:29:06.063Z,1.60
2023-09-30T20:33:08.810Z,1.60
2023-09-30T20:37:10.816Z,1.58
2023-09-30T20:41:13.120Z,1.42
2023-09-30T20:45:15.113Z,1.33
2023-09-30T20:49:19.485Z,1.02
2023-09-30T20:53:22.734Z,1.15
2023-09-30T20:57:24.850Z,1.40
2023-09-30T21:01:27.136Z,1.38
2023-09-30T21:05:29.309Z,1.50
2023-09-30T21:09:31.310Z,1.50
2023-09-30T21:13:33.152Z,1.50
2023-09-30T21:17:35.555Z,1.00
2023-09-30T21:21:38.054Z,1.35
2023-09-30T21:25:40.391Z,1.40
2023-09-30T21:29:42.630Z,1.30
2023-09-30T21:33:45.496Z,1.40
2023-09-30T21:37:48.492Z,1.33
2023-09-30T21:41:50.390Z,1.30
2023-09-30T21:45:52.703Z,1.60
2023-09-30T21:49:54.841Z,1.25
2023-09-30T21:53:56.728Z,1.50
2023-09-30T21:57:59.026Z,1.40
2023-09-30T22:02:01.756Z,1.40
2023-09-30T22:06:04.092Z,1.50
2023-09-30T22:10:08.624Z,1.40
2023-09-30T22:14:11.352Z,1.55
2023-09-30T22:18:14.535Z,1.58
2023-09-30T22:22:17.533Z,1.45
2023-09-30T22:26:20.674Z,1.20
2023-09-30T22:30:24.224Z,1.48
2023-09-30T22:34:26.982Z,1.48
2023-09-30T22:38:29.748Z,1.48
2023-09-30T22:42:32.093Z,1.45
2023-09-30T22:46:34.975Z,1.67
2023-09-30T22:50:37.810Z,1.50
2023-09-30T22:54:40.261Z,1.60
2023-09-30T22:58:42.956Z,1.30
2023-09-30T23:02:46.373Z,1.45
2023-09-30T23:06:49.964Z,1.48
2023-09-30T23:10:53.062Z,1.27
2023-09-30T23:14:55.668Z,1.50
2023-09-30T23:19:01.144Z,1.40
2023-09-30T23:23:03.649Z,1.40
2023-09-30T23:27:09.034Z,1.50
2023-09-30T23:31:12.830Z,1.50
2023-09-30T23:35:17.753Z,1.27
2023-09-30T23:39:19.949Z,1.50
2023-09-30T23:43:22.535Z,1.33
2023-09-30T23:47:33.359Z,1.20
2023-09-30T23:51:46.899Z,1.60
2023-09-30T23:55:49.575Z,1.52
2023-09-30T23:59:54.321Z,1.70
